createdAt,value
2023-03-01T00:00:25.686Z,7.50
2023-03-01T00:05:44.669Z,7.43
2023-03-01T00:10:55.378Z,6.60
2023-03-01T00:16:06.745Z,6.38
2023-03-01T00:21:12.850Z,4.97
2023-03-01T00:26:17.126Z,4.13
2023-03-01T00:31:36.472Z,6.53
2023-03-01T00:36:40.647Z,3.83
2023-03-01T00:41:55.203Z,6.43
2023-03-01T00:47:09.650Z,3.58
2023-03-01T00:52:18.752Z,5.10
2023-03-01T00:57:26.755Z,4.03
2023-03-01T01:02:33.126Z,6.00
2023-03-01T01:07:37.830Z,4.63
2023-03-01T01:12:44.122Z,4.50
2023-03-01T01:17:50.572Z,6.20
2023-03-01T01:22:56.178Z,4.43
2023-03-01T01:28:01.346Z,6.40
2023-03-01T01:33:08.803Z,4.17
2023-03-01T01:38:21.003Z,5.93
2023-03-01T01:43:29.264Z,4.80
2023-03-01T01:48:47.530Z,6.20
2023-03-01T01:53:57.793Z,4.37
2023-03-01T01:59:01.557Z,6.13
2023-03-01T02:04:08.552Z,4.93
2023-03-01T02:09:20.719Z,7.13
2023-03-01T02:14:27.563Z,4.30
2023-03-01T02:19:41.430Z,7.53
2023-03-01T02:24:55.743Z,5.07
2023-03-01T02:30:11.541Z,6.23
2023-03-01T02:35:26.269Z,5.23
2023-03-01T02:40:36.119Z,3.07
2023-03-01T02:45:56.809Z,3.27
2023-03-01T02:51:13.260Z,8.53
2023-03-01T02:56:21.202Z,5.87
2023-03-01T03:01:37.962Z,7.30
2023-03-01T03:06:44.342Z,4.07
2023-03-01T03:11:55.940Z,6.43
2023-03-01T03:17:04.255Z,5.07
2023-03-01T03:22:11.000Z,2.57
2023-03-01T03:27:16.785Z,2.50
2023-03-01T03:32:24.191Z,6.50
2023-03-01T03:37:46.088Z,7.60
2023-03-01T03:42:51.042Z,3.93
2023-03-01T03:48:01.606Z,5.33
2023-03-01T03:53:09.016Z,4.00
2023-03-01T03:58:21.684Z,4.13
2023-03-01T04:03:38.563Z,4.63
2023-03-01T04:08:52.465Z,4.60
2023-03-01T04:13:59.008Z,6.03
2023-03-01T04:19:19.523Z,4.20
2023-03-01T04:24:26.627Z,5.63
2023-03-01T04:29:32.457Z,4.83
2023-03-01T04:34:36.897Z,5.57
2023-03-01T04:39:58.180Z,6.23
2023-03-01T04:45:01.773Z,7.50
2023-03-01T04:50:08.311Z,5.97
2023-03-01T04:55:23.272Z,5.10
2023-03-01T05:00:35.428Z,4.20
2023-03-01T05:05:41.277Z,6.07
2023-03-01T05:10:53.455Z,4.10
2023-03-01T05:15:59.574Z,5.37
2023-03-01T05:21:07.238Z,6.10
2023-03-01T05:26:30.186Z,4.30
2023-03-01T05:31:36.058Z,8.10
2023-03-01T05:36:45.248Z,4.70
2023-03-01T05:41:58.964Z,5.50
2023-03-01T05:47:11.549Z,6.50
2023-03-01T05:52:21.501Z,6.83
2023-03-01T05:57:35.390Z,4.97
2023-03-01T06:02:43.331Z,5.20
2023-03-01T06:07:50.611Z,6.50
2023-03-01T06:12:59.982Z,6.17
2023-03-01T06:18:12.726Z,7.47
2023-03-01T06:23:28.829Z,6.78
2023-03-01T06:28:35.921Z,5.57
2023-03-01T06:33:53.112Z,5.63
2023-03-01T06:39:04.784Z,4.60
2023-03-01T06:44:11.501Z,4.33
2023-03-01T06:49:28.543Z,3.43
2023-03-01T06:54:41.461Z,7.17
2023-03-01T06:59:53.330Z,4.88
2023-03-01T07:04:59.499Z,5.47
2023-03-01T07:10:09.535Z,4.13
2023-03-01T07:15:22.606Z,6.07
2023-03-01T07:20:36.769Z,4.87
2023-03-01T07:25:43.938Z,7.65
2023-03-01T07:30:50.880Z,3.53
2023-03-01T07:36:08.151Z,6.47
2023-03-01T07:41:15.213Z,6.57
2023-03-01T07:46:22.761Z,7.10
2023-03-01T07:51:35.968Z,5.63
2023-03-01T07:56:40.427Z,4.63
2023-03-01T08:01:53.241Z,4.50
2023-03-01T08:06:58.326Z,3.13
2023-03-01T08:12:03.104Z,5.53
2023-03-01T08:17:11.560Z,2.83
2023-03-01T08:22:20.271Z,4.40
2023-03-01T08:27:31.057Z,5.40
2023-03-01T08:32:51.070Z,4.80
2023-03-01T08:37:59.095Z,8.60
2023-03-01T08:43:08.842Z,7.43
2023-03-01T08:48:14.706Z,6.60
2023-03-01T08:53:22.221Z,4.17
2023-03-01T08:58:32.089Z,6.95
2023-03-01T09:03:39.807Z,5.60
2023-03-01T09:08:53.614Z,5.95
2023-03-01T09:19:01.262Z,8.02
2023-03-01T09:24:06.367Z,4.85
2023-03-01T09:29:21.304Z,5.45
2023-03-01T09:34:32.238Z,7.30
2023-03-01T09:39:40.965Z,8.75
2023-03-01T09:44:54.532Z,9.50
2023-03-01T09:50:08.519Z,7.47
2023-03-01T09:55:17.995Z,5.65
2023-03-01T10:00:29.000Z,5.53
2023-03-01T10:05:44.112Z,4.90
2023-03-01T10:10:54.320Z,4.88
2023-03-01T10:15:59.658Z,7.60
2023-03-01T10:21:17.530Z,9.60
2023-03-01T10:26:41.811Z,9.32
2023-03-01T10:31:56.305Z,9.48
2023-03-01T10:37:02.059Z,9.27
2023-03-01T10:42:23.712Z,8.93
2023-03-01T10:47:35.657Z,10.45
2023-03-01T10:52:53.347Z,12.00
2023-03-01T10:58:14.804Z,9.95
2023-03-01T11:03:26.118Z,12.60
2023-03-01T11:08:41.302Z,13.75
2023-03-01T11:14:03.148Z,14.77
2023-03-01T11:19:21.843Z,14.80
2023-03-01T11:24:34.183Z,13.77
2023-03-01T11:35:19.941Z,15.05
2023-03-01T11:40:34.315Z,16.25
2023-03-01T11:45:57.265Z,18.48
2023-03-01T11:56:21.226Z,13.52
2023-03-01T12:01:42.689Z,13.98
2023-03-01T12:06:57.641Z,15.23
2023-03-01T12:12:17.856Z,15.07
2023-03-01T12:17:38.624Z,15.70
2023-03-01T12:22:53.217Z,14.35
2023-03-01T12:28:17.686Z,14.02
2023-03-01T12:33:37.846Z,15.15
2023-03-01T12:38:58.037Z,12.43
2023-03-01T12:44:21.291Z,14.00
2023-03-01T12:49:31.451Z,14.05
2023-03-01T12:54:53.118Z,11.73
2023-03-01T13:00:17.087Z,13.27
2023-03-01T13:10:54.930Z,13.48
2023-03-01T13:16:34.969Z,13.32
2023-03-01T13:21:57.747Z,13.48
2023-03-01T13:27:26.244Z,12.45
2023-03-01T13:32:49.773Z,12.88
2023-03-01T13:37:54.675Z,13.73
2023-03-01T13:43:24.424Z,12.63
2023-03-01T13:48:31.779Z,12.73
2023-03-01T13:53:38.360Z,12.10
2023-03-01T13:58:49.620Z,11.90
2023-03-01T14:03:55.069Z,9.15
2023-03-01T14:09:11.605Z,12.40
2023-03-01T14:14:32.840Z,11.25
2023-03-01T14:19:42.084Z,11.35
2023-03-01T14:24:51.097Z,10.98
2023-03-01T14:30:16.289Z,9.07
2023-03-01T14:35:25.248Z,9.98
2023-03-01T14:40:29.942Z,12.10
2023-03-01T14:45:34.163Z,12.32
2023-03-01T14:50:45.715Z,10.80
2023-03-01T14:55:52.640Z,10.52
2023-03-01T15:01:16.113Z,9.10
2023-03-01T15:06:39.965Z,10.70
2023-03-01T15:11:48.898Z,9.27
2023-03-01T15:16:57.892Z,10.48
2023-03-01T15:22:14.260Z,9.15
2023-03-01T15:27:25.319Z,9.20
2023-03-01T15:32:43.786Z,9.20
2023-03-01T15:37:51.321Z,9.45
2023-03-01T15:42:59.865Z,7.78
2023-03-01T15:48:20.769Z,8.68
2023-03-01T15:53:27.879Z,8.60
2023-03-01T15:58:34.387Z,8.52
2023-03-01T16:03:39.519Z,8.02
2023-03-01T16:08:54.168Z,7.75
2023-03-01T16:14:01.341Z,8.35
2023-03-01T16:19:10.547Z,6.97
2023-03-01T16:24:19.690Z,8.15
2023-03-01T16:34:57.339Z,7.93
2023-03-01T16:40:21.333Z,8.85
2023-03-01T16:45:38.384Z,9.07
2023-03-01T16:50:46.057Z,8.30
2023-03-01T16:55:58.445Z,7.85
2023-03-01T17:01:19.358Z,7.87
2023-03-01T17:06:37.410Z,8.50
2023-03-01T17:11:47.320Z,7.90
2023-03-01T17:16:54.149Z,6.70
2023-03-01T17:21:58.092Z,7.68
2023-03-01T17:27:11.794Z,8.32
2023-03-01T17:32:16.814Z,8.15
2023-03-01T17:37:25.927Z,9.85
2023-03-01T17:42:36.958Z,14.65
2023-03-01T17:47:42.067Z,10.02
2023-03-01T17:52:47.771Z,7.15
2023-03-01T17:57:52.620Z,19.70
2023-03-01T18:02:56.424Z,9.40
2023-03-01T18:08:02.462Z,14.80
2023-03-01T18:13:10.830Z,7.25
2023-03-01T18:18:19.661Z,13.90
2023-03-01T18:23:27.808Z,10.52
2023-03-01T18:28:46.060Z,9.90
2023-03-01T18:33:52.944Z,12.63
2023-03-01T18:39:12.611Z,13.18
2023-03-01T18:44:40.213Z,11.32
2023-03-01T18:49:46.186Z,15.45
2023-03-01T18:55:04.138Z,14.65
2023-03-01T19:00:14.189Z,11.93
2023-03-01T19:05:27.237Z,13.13
2023-03-01T19:10:36.958Z,12.20
2023-03-01T19:15:51.500Z,9.23
2023-03-01T19:21:05.024Z,11.35
2023-03-01T19:26:19.266Z,8.83
2023-03-01T19:31:35.205Z,7.50
2023-03-01T19:37:09.028Z,7.65
2023-03-01T19:42:19.826Z,6.87
2023-03-01T19:47:25.241Z,7.95
2023-03-01T19:52:28.673Z,7.23
2023-03-01T19:57:34.115Z,7.53
2023-03-01T20:08:09.729Z,7.30
2023-03-01T20:13:12.213Z,6.47
2023-03-01T20:18:15.209Z,5.70
2023-03-01T20:23:19.551Z,5.57
2023-03-01T20:28:22.903Z,4.55
2023-03-01T20:33:25.769Z,5.60
2023-03-01T20:38:30.511Z,7.17
2023-03-01T20:43:34.988Z,4.47
2023-03-01T20:48:47.534Z,6.10
2023-03-01T20:53:51.991Z,9.00
2023-03-01T20:58:59.613Z,7.30
2023-03-01T21:04:03.398Z,6.55
2023-03-01T21:09:10.772Z,8.73
2023-03-01T21:14:13.659Z,8.23
2023-03-01T21:19:16.226Z,6.53
2023-03-01T21:24:21.114Z,8.10
2023-03-01T21:34:26.410Z,8.03
2023-03-01T21:39:34.677Z,6.17
2023-03-01T21:44:38.014Z,6.87
2023-03-01T21:49:41.396Z,5.87
2023-03-01T21:54:46.537Z,7.80
2023-03-01T21:59:49.112Z,7.40
2023-03-01T22:04:57.682Z,7.10
2023-03-01T22:10:01.837Z,8.60
2023-03-01T22:15:08.723Z,9.03
2023-03-01T22:20:12.303Z,8.70
2023-03-01T22:25:16.077Z,6.53
2023-03-01T22:30:29.802Z,8.40
2023-03-01T22:35:32.681Z,6.38
2023-03-01T22:40:39.093Z,7.57
2023-03-01T22:45:41.799Z,7.17
2023-03-01T22:50:45.192Z,8.30
2023-03-01T22:55:50.037Z,6.72
2023-03-01T23:00:53.339Z,7.50
2023-03-01T23:05:56.343Z,7.93
2023-03-01T23:11:02.110Z,6.88
2023-03-01T23:16:05.877Z,7.93
2023-03-01T23:21:10.159Z,8.18
2023-03-01T23:26:14.673Z,7.60
2023-03-01T23:31:31.340Z,7.97
2023-03-01T23:36:44.923Z,7.90
2023-03-01T23:41:49.491Z,8.50
2023-03-01T23:46:52.974Z,9.10
2023-03-01T23:51:56.000Z,5.37
2023-03-01T23:57:01.898Z,7.38
